Time;durP1;ratioP1;P1;durP2;ratioP2;P2;SDS_P1;SDS_P2;PMS_P1;PMS_P2;Temp;Humidity;BMP_temperature;BMP_pressure;BME280_temperature;BME280_humidity;BME280_pressure;Samples;Min_cycle;Max_cycle;Signal;HPM_P1;HPM_P2
2023/01/21 00:00:01;;;;;;;66.07;24.73;;;-2.20;99.90;;;;;;4985975;28;20124;-66
2023/01/21 00:02:27;;;;;;;66.13;24.27;;;-2.20;99.90;;;;;;4986642;28;20410;-66
2023/01/21 00:04:52;;;;;;;59.63;23.75;;;-2.20;99.90;;;;;;4972088;28;20046;-66
2023/01/21 00:07:18;;;;;;;65.53;24.70;;;-2.20;99.90;;;;;;4987569;28;20096;-66
2023/01/21 00:09:44;;;;;;;68.32;24.00;;;-2.20;99.90;;;;;;4988289;28;20108;-66
2023/01/21 00:12:10;;;;;;;66.35;23.13;;;-2.20;99.90;;;;;;4971800;28;20084;-66
2023/01/21 00:14:35;;;;;;;58.13;23.40;;;-2.20;99.90;;;;;;4955487;28;20140;-66
2023/01/21 00:17:01;;;;;;;65.57;25.30;;;-2.20;99.90;;;;;;4971867;28;20165;-66
2023/01/21 00:19:28;;;;;;;67.68;24.08;;;-2.20;99.90;;;;;;4988220;28;20088;-66
2023/01/21 00:21:54;;;;;;;64.07;24.33;;;-2.20;99.90;;;;;;4970676;28;20042;-66
2023/01/21 00:24:21;;;;;;;69.95;24.73;;;-2.30;99.90;;;;;;4950860;28;20285;-66
2023/01/21 00:26:47;;;;;;;59.20;23.50;;;-2.30;99.90;;;;;;4987934;28;20092;-66
2023/01/21 00:29:13;;;;;;;64.70;24.88;;;-2.30;99.90;;;;;;4988864;28;20126;-66
2023/01/21 00:31:39;;;;;;;71.53;24.60;;;-2.30;99.90;;;;;;4971753;28;20507;-66
2023/01/21 00:34:05;;;;;;;66.28;26.73;;;-2.20;99.90;;;;;;4986945;28;20046;-66
2023/01/21 00:36:30;;;;;;;73.13;25.98;;;-2.20;99.90;;;;;;4966289;28;20411;-66
2023/01/21 00:38:56;;;;;;;70.25;26.20;;;-2.20;99.90;;;;;;4986293;28;20042;-66
2023/01/21 00:41:25;;;;;;;80.95;26.85;;;-2.10;99.90;;;;;;4986218;28;20048;-66
2023/01/21 00:43:51;;;;;;;77.95;26.73;;;-2.00;99.90;;;;;;4985526;28;20038;-66
2023/01/21 00:46:18;;;;;;;79.65;27.90;;;-1.90;99.90;;;;;;4985956;28;20108;-66
2023/01/21 00:48:44;;;;;;;69.60;25.00;;;-1.90;99.90;;;;;;4971487;28;20050;-66
2023/01/21 00:51:10;;;;;;;71.90;27.15;;;-1.80;99.90;;;;;;4988303;28;20490;-66
2023/01/21 00:53:40;;;;;;;75.95;25.98;;;-1.80;99.90;;;;;;4987389;28;20029;-66
2023/01/21 00:56:08;;;;;;;69.55;26.48;;;-1.70;99.90;;;;;;4987264;28;20088;-66
2023/01/21 00:58:34;;;;;;;82.72;26.10;;;-1.70;99.90;;;;;;4968279;28;20053;-66
2023/01/21 01:01:11;;;;;;;73.10;28.20;;;-1.60;99.90;;;;;;4989348;28;20170;-66
2023/01/21 01:03:38;;;;;;;81.40;28.90;;;-1.60;99.90;;;;;;4984856;28;20054;-66
2023/01/21 01:06:07;;;;;;;77.43;28.45;;;-1.60;99.90;;;;;;4990452;28;20115;-66
2023/01/21 01:08:33;;;;;;;82.07;28.52;;;-1.60;99.90;;;;;;4976499;28;20254;-66
2023/01/21 01:10:59;;;;;;;90.15;29.50;;;-1.30;99.90;;;;;;4986153;28;20096;-67
2023/01/21 01:13:26;;;;;;;70.10;26.05;;;-1.20;99.90;;;;;;4988248;28;20044;-67
2023/01/21 01:15:56;;;;;;;72.40;27.08;;;-1.10;99.90;;;;;;4974266;28;20640;-66
2023/01/21 01:18:23;;;;;;;75.65;27.20;;;-1.50;99.90;;;;;;5008914;28;20041;-66
2023/01/21 01:20:49;;;;;;;77.78;27.83;;;-1.50;99.90;;;;;;4987937;28;20076;-66
2023/01/21 01:23:15;;;;;;;75.40;26.27;;;-1.50;99.90;;;;;;4974184;28;20593;-66
2023/01/21 01:25:41;;;;;;;80.70;27.85;;;-1.40;99.90;;;;;;4972074;28;20038;-66
2023/01/21 01:28:07;;;;;;;85.35;27.10;;;-1.50;99.90;;;;;;4990686;28;20172;-66
2023/01/21 01:30:34;;;;;;;79.60;28.58;;;-1.50;99.90;;;;;;4990471;28;20064;-66
2023/01/21 01:33:00;;;;;;;76.95;28.23;;;-1.50;99.90;;;;;;4988133;28;20049;-67
2023/01/21 01:35:27;;;;;;;79.65;24.88;;;-1.50;99.90;;;;;;4972765;28;20037;-66
2023/01/21 01:37:53;;;;;;;69.55;26.13;;;-1.40;99.90;;;;;;4990473;28;20132;-67
2023/01/21 01:40:19;;;;;;;76.32;26.27;;;-1.50;99.90;;;;;;4974245;28;20038;-67
2023/01/21 01:42:45;;;;;;;79.32;28.15;;;-1.40;99.90;;;;;;4964704;28;20045;-67
2023/01/21 01:45:13;;;;;;;92.60;28.33;;;-1.50;99.90;;;;;;4989731;28;20038;-66
2023/01/21 01:47:56;;;;;;;89.80;28.05;;;-1.40;99.90;;;;;;5008043;28;20077;-66
2023/01/21 01:50:32;;;;;;;95.50;27.42;;;-1.40;99.90;;;;;;4993711;28;20053;-67
2023/01/21 01:53:00;;;;;;;88.07;27.25;;;-1.50;99.90;;;;;;4987573;28;20049;-66
2023/01/21 01:55:30;;;;;;;95.55;28.13;;;-1.50;99.90;;;;;;4990167;28;20042;-67
2023/01/21 01:57:57;;;;;;;100.60;29.30;;;-1.50;99.90;;;;;;4983705;28;20053;-67
2023/01/21 02:00:26;;;;;;;94.20;28.15;;;-1.20;99.90;;;;;;4987762;28;21091;-66
2023/01/21 02:05:39;;;;;;;98.13;28.83;;;-1.50;99.90;;;;;;4986044;28;20041;-67
2023/01/21 02:08:05;;;;;;;120.43;30.98;;;-1.50;99.90;;;;;;4995337;28;20518;-66
2023/01/21 02:10:33;;;;;;;97.35;28.98;;;-1.50;99.90;;;;;;4987875;28;20042;-66
2023/01/21 02:12:59;;;;;;;90.05;28.70;;;-1.50;99.90;;;;;;4971342;28;20038;-66
2023/01/21 02:15:31;;;;;;;99.78;27.45;;;-1.50;99.90;;;;;;4987552;28;20403;-67
2023/01/21 02:18:15;;;;;;;94.25;29.00;;;-1.50;99.90;;;;;;4990748;28;20116;-67
2023/01/21 02:21:22;;;;;;;82.82;27.38;;;-1.50;99.90;;;;;;4989364;28;20514;-66
2023/01/21 02:24:07;;;;;;;102.70;29.50;;;-1.50;99.90;;;;;;4988880;28;20038;-67
2023/01/21 02:26:35;;;;;;;108.55;31.15;;;-1.20;99.90;;;;;;4988249;28;20038;-66
2023/01/21 02:29:32;;;;;;;106.25;31.52;;;-1.50;99.90;;;;;;4982029;28;20156;-67
2023/01/21 02:32:20;;;;;;;100.13;29.23;;;-1.50;99.90;;;;;;4986259;28;20043;-66
2023/01/21 02:34:56;;;;;;;111.50;29.05;;;-1.50;99.90;;;;;;4990570;28;20384;-66
2023/01/21 02:37:54;;;;;;;135.77;32.30;;;-1.50;99.90;;;;;;4987333;28;20044;-67
2023/01/21 02:40:36;;;;;;;116.30;31.27;;;-1.50;99.90;;;;;;4989324;28;20033;-67
2023/01/21 02:43:11;;;;;;;118.00;33.47;;;-1.50;99.90;;;;;;4985407;28;20077;-67
2023/01/21 02:45:47;;;;;;;110.65;32.10;;;-1.30;99.90;;;;;;5005232;28;20441;-67
2023/01/21 02:48:18;;;;;;;112.75;30.52;;;-1.40;99.90;;;;;;4989497;28;20446;-66
2023/01/21 02:50:49;;;;;;;143.15;30.23;;;-1.40;99.90;;;;;;4987835;28;20041;-66
2023/01/21 02:53:34;;;;;;;115.32;30.92;;;-1.50;99.90;;;;;;4988665;28;20263;-66
2023/01/21 02:56:08;;;;;;;113.57;30.45;;;-1.50;99.90;;;;;;4987945;28;20088;-67
2023/01/21 02:58:37;;;;;;;95.45;27.95;;;-1.50;99.90;;;;;;4979385;28;20034;-66
2023/01/21 03:01:20;;;;;;;99.07;29.13;;;-1.20;99.90;;;;;;4989372;28;20117;-67
2023/01/21 03:03:51;;;;;;;111.30;29.27;;;-1.50;99.90;;;;;;4972197;28;20488;-67
2023/01/21 03:06:38;;;;;;;114.45;28.80;;;-1.40;99.90;;;;;;4989235;28;20078;-67
2023/01/21 03:09:19;;;;;;;118.55;28.95;;;-1.50;99.90;;;;;;4988044;28;20398;-67
2023/01/21 03:12:00;;;;;;;130.30;32.45;;;-1.40;99.90;;;;;;5000302;28;20040;-67
2023/01/21 03:17:46;;;;;;;88.35;26.65;;;-1.40;99.90;;;;;;4987280;28;20040;-67
2023/01/21 03:20:23;;;;;;;110.20;28.25;;;-1.40;99.90;;;;;;4984935;28;20041;-66
2023/01/21 03:22:54;;;;;;;98.45;28.80;;;-1.40;99.90;;;;;;4987552;28;20504;-67
2023/01/21 03:25:22;;;;;;;104.25;28.95;;;-1.40;99.90;;;;;;4989132;28;20034;-67
2023/01/21 03:27:49;;;;;;;114.95;25.77;;;-1.00;99.90;;;;;;4984571;28;20080;-67
2023/01/21 03:30:19;;;;;;;91.90;27.60;;;-1.40;99.90;;;;;;4971335;28;20049;-67
2023/01/21 03:32:49;;;;;;;106.28;28.90;;;-1.30;99.90;;;;;;4969792;28;20518;-67
2023/01/21 03:35:47;;;;;;;111.18;30.27;;;-1.40;99.90;;;;;;4986567;28;20038;-67
2023/01/21 03:38:23;;;;;;;100.93;28.95;;;-1.30;99.90;;;;;;4976615;28;20046;-67
2023/01/21 03:41:14;;;;;;;109.80;28.63;;;-1.30;99.90;;;;;;4971021;28;20050;-67
2023/01/21 03:43:40;;;;;;;140.57;31.35;;;-1.30;99.90;;;;;;4988225;28;20046;-67
2023/01/21 03:46:12;;;;;;;109.32;28.75;;;-1.30;99.90;;;;;;4988672;28;20810;-67
2023/01/21 03:48:53;;;;;;;128.40;32.40;;;-1.40;99.90;;;;;;4972340;28;20072;-67
2023/01/21 03:51:26;;;;;;;117.68;29.02;;;-1.40;99.90;;;;;;4986219;28;20038;-66
2023/01/21 03:53:55;;;;;;;111.13;28.70;;;-1.40;99.90;;;;;;4987746;28;20096;-67
2023/01/21 03:56:23;;;;;;;117.25;29.52;;;-1.40;99.90;;;;;;4989097;28;20443;-67
2023/01/21 03:58:49;;;;;;;104.07;29.05;;;-1.40;99.90;;;;;;5007081;28;20137;-66
2023/01/21 04:01:15;;;;;;;98.90;28.77;;;-1.40;99.90;;;;;;4963300;28;20125;-67
2023/01/21 04:03:42;;;;;;;102.55;29.23;;;-1.40;99.90;;;;;;4991410;28;20035;-67
2023/01/21 04:06:19;;;;;;;94.47;26.75;;;-1.30;99.90;;;;;;5005936;28;20112;-67
2023/01/21 04:08:45;;;;;;;100.85;27.33;;;-1.40;99.90;;;;;;4985455;28;20038;-67
2023/01/21 04:11:11;;;;;;;101.25;28.27;;;-1.40;99.90;;;;;;4966202;28;20038;-66
2023/01/21 04:13:37;;;;;;;91.93;28.33;;;-1.40;99.90;;;;;;4988206;28;20049;-67
2023/01/21 04:16:03;;;;;;;97.18;26.10;;;-1.40;99.90;;;;;;4988351;28;20671;-66
2023/01/21 04:18:29;;;;;;;138.23;29.65;;;-1.50;99.90;;;;;;4971491;28;20483;-66
2023/01/21 04:20:55;;;;;;;119.97;29.95;;;-1.50;99.90;;;;;;4989066;28;20073;-66
2023/01/21 04:23:20;;;;;;;107.88;27.77;;;-1.60;99.90;;;;;;4965314;28;20503;-67
2023/01/21 04:25:47;;;;;;;128.88;28.83;;;-1.60;99.90;;;;;;4987658;28;20034;-67
2023/01/21 04:28:13;;;;;;;125.80;32.90;;;-1.70;99.90;;;;;;4955077;28;20033;-66
2023/01/21 04:30:39;;;;;;;109.03;29.80;;;-1.70;99.90;;;;;;4971055;28;20635;-66
2023/01/21 04:33:04;;;;;;;125.25;29.83;;;-1.70;99.90;;;;;;4981977;28;20073;-66
2023/01/21 04:35:30;;;;;;;110.13;28.20;;;-1.80;99.90;;;;;;4989102;28;20052;-66
2023/01/21 04:37:56;;;;;;;120.63;31.00;;;-1.80;99.90;;;;;;4974527;28;20042;-66
2023/01/21 04:40:22;;;;;;;114.72;29.58;;;-1.90;99.90;;;;;;4971629;28;20091;-66
2023/01/21 04:42:47;;;;;;;90.38;28.52;;;-2.00;99.90;;;;;;4991267;28;20183;-67
2023/01/21 04:45:13;;;;;;;132.77;32.03;;;-2.00;99.90;;;;;;4987750;28;20501;-66
2023/01/21 04:47:42;;;;;;;102.25;28.58;;;-2.00;99.90;;;;;;4974942;28;20042;-66
2023/01/21 04:50:10;;;;;;;123.25;35.67;;;-2.00;99.90;;;;;;4991197;28;20041;-66
2023/01/21 04:52:36;;;;;;;202.95;40.92;;;-2.00;99.90;;;;;;4990828;28;20495;-66
2023/01/21 04:55:02;;;;;;;142.68;32.30;;;-2.00;99.90;;;;;;4973412;28;20055;-66
2023/01/21 04:57:27;;;;;;;158.27;35.55;;;-2.00;99.90;;;;;;4990063;28;20172;-66
2023/01/21 04:59:53;;;;;;;151.70;35.80;;;-2.00;99.90;;;;;;4974541;28;20407;-66
2023/01/21 05:02:19;;;;;;;148.43;33.25;;;-1.90;99.90;;;;;;4989852;28;20071;-66
2023/01/21 05:04:44;;;;;;;142.10;32.70;;;-1.90;99.90;;;;;;4970829;28;20046;-66
2023/01/21 05:07:10;;;;;;;155.48;35.83;;;-1.90;99.90;;;;;;4990894;28;20037;-66
2023/01/21 05:09:36;;;;;;;143.43;33.28;;;-1.50;99.90;;;;;;4942671;28;20030;-66
2023/01/21 05:12:03;;;;;;;114.63;30.50;;;-1.80;99.90;;;;;;4973714;28;20128;-66
2023/01/21 05:14:29;;;;;;;106.43;31.08;;;-1.80;99.90;;;;;;4976083;28;20041;-66
2023/01/21 05:16:55;;;;;;;142.35;34.70;;;-1.70;99.90;;;;;;4991087;28;20038;-66
2023/01/21 05:19:20;;;;;;;114.15;32.85;;;-1.70;99.90;;;;;;4961293;28;20195;-67
2023/01/21 05:21:46;;;;;;;138.32;35.00;;;-1.70;99.90;;;;;;4990548;28;20631;-67
2023/01/21 05:24:12;;;;;;;114.93;33.70;;;-1.70;99.90;;;;;;4966964;28;20089;-66
2023/01/21 05:26:37;;;;;;;96.57;28.30;;;-1.60;99.90;;;;;;4989567;28;20048;-66
2023/01/21 05:29:03;;;;;;;108.78;29.85;;;-1.60;99.90;;;;;;4989837;28;20034;-67
2023/01/21 05:31:29;;;;;;;117.07;29.23;;;-1.60;99.90;;;;;;4956844;28;20124;-66
2023/01/21 05:33:56;;;;;;;95.90;28.73;;;-1.30;99.90;;;;;;4967350;28;20042;-66
2023/01/21 05:36:21;;;;;;;95.22;27.67;;;-1.50;99.90;;;;;;4973885;28;20534;-66
2023/01/21 05:38:47;;;;;;;99.60;28.42;;;-1.50;99.90;;;;;;4987101;28;20042;-66
2023/01/21 05:41:13;;;;;;;97.32;27.50;;;-1.50;99.90;;;;;;4987199;28;20042;-66
2023/01/21 05:43:39;;;;;;;81.70;24.85;;;-1.20;99.90;;;;;;4990951;28;20034;-66
2023/01/21 05:46:05;;;;;;;90.88;27.98;;;-1.40;99.90;;;;;;4990300;28;20046;-66
2023/01/21 05:48:30;;;;;;;104.18;28.70;;;-1.50;99.90;;;;;;4989824;28;20380;-66
2023/01/21 05:50:56;;;;;;;98.90;29.10;;;-1.40;99.90;;;;;;4988002;28;20038;-66
2023/01/21 05:53:23;;;;;;;87.70;27.27;;;-1.40;99.90;;;;;;4989540;28;20026;-66
2023/01/21 05:55:55;;;;;;;75.00;26.20;;;-1.30;99.90;;;;;;4989283;28;20522;-66
2023/01/21 05:58:22;;;;;;;;;;;-1.30;99.90;;;;;;4974816;28;20088;-66
2023/01/21 06:00:48;;;;;;;98.03;29.45;;;-1.30;99.90;;;;;;4990959;28;19917;-66
2023/01/21 06:03:15;;;;;;;84.95;28.52;;;-1.30;99.90;;;;;;4974898;28;20415;-66
2023/01/21 06:05:40;;;;;;;92.28;27.48;;;-1.30;99.90;;;;;;4990279;28;20041;-67
2023/01/21 06:08:07;;;;;;;84.22;27.98;;;-1.20;99.90;;;;;;4971489;28;20030;-67
2023/01/21 06:10:33;;;;;;;80.78;25.42;;;-1.20;99.90;;;;;;4990423;28;20127;-66
2023/01/21 06:12:59;;;;;;;84.93;26.48;;;-1.20;99.90;;;;;;4973381;28;20046;-66
2023/01/21 06:15:25;;;;;;;79.07;26.50;;;-1.20;99.90;;;;;;4982183;28;20466;-66
2023/01/21 06:17:51;;;;;;;66.15;24.67;;;-1.20;99.90;;;;;;4988134;28;20053;-66
2023/01/21 06:20:17;;;;;;;75.60;26.33;;;-1.20;99.90;;;;;;4974599;28;20410;-66
2023/01/21 06:22:43;;;;;;;70.32;24.30;;;-1.20;99.90;;;;;;4989508;28;20034;-66
2023/01/21 06:25:09;;;;;;;78.35;25.67;;;-1.20;99.90;;;;;;4992645;28;20160;-66
2023/01/21 06:27:37;;;;;;;77.05;24.67;;;-1.20;99.90;;;;;;4994951;28;20037;-66
2023/01/21 06:30:08;;;;;;;62.30;21.48;;;-1.20;99.90;;;;;;4992093;28;20030;-66
2023/01/21 06:32:34;;;;;;;69.70;23.70;;;-1.10;99.90;;;;;;4991963;28;20038;-66
2023/01/21 06:35:01;;;;;;;75.30;24.73;;;-1.10;99.90;;;;;;4976224;28;20045;-66
2023/01/21 06:37:26;;;;;;;68.32;22.60;;;-1.10;99.90;;;;;;4992781;28;20045;-66
2023/01/21 06:39:53;;;;;;;67.50;23.27;;;-0.80;99.90;;;;;;4979947;28;20041;-66
2023/01/21 06:42:19;;;;;;;62.03;22.75;;;-1.10;99.90;;;;;;4976071;28;20045;-66
2023/01/21 06:44:45;;;;;;;76.47;24.08;;;-1.10;99.90;;;;;;4980121;28;20136;-66
2023/01/21 06:47:11;;;;;;;71.90;24.67;;;-1.00;99.90;;;;;;4992673;28;20038;-67
2023/01/21 06:49:37;;;;;;;75.47;24.65;;;-1.10;99.90;;;;;;4976577;28;20120;-66
2023/01/21 06:52:03;;;;;;;68.88;23.48;;;-1.00;99.90;;;;;;4983424;28;20164;-66
2023/01/21 06:54:29;;;;;;;63.08;22.52;;;-1.00;99.90;;;;;;4989996;28;20052;-66
2023/01/21 06:56:55;;;;;;;57.55;21.10;;;-1.00;99.90;;;;;;4971102;28;20042;-66
2023/01/21 06:59:20;;;;;;;63.08;22.20;;;-1.00;99.90;;;;;;4988035;28;20057;-66
2023/01/21 07:01:46;;;;;;;61.38;22.15;;;-1.00;99.90;;;;;;4972810;28;20068;-67
2023/01/21 07:04:12;;;;;;;67.28;21.92;;;-1.00;99.90;;;;;;4964568;28;20053;-66
2023/01/21 07:06:38;;;;;;;58.25;21.02;;;-1.00;99.90;;;;;;4988660;28;20237;-66
2023/01/21 07:09:05;;;;;;;71.28;22.30;;;-1.00;99.90;;;;;;4986101;28;20113;-66
2023/01/21 07:11:31;;;;;;;60.17;21.17;;;-1.00;99.90;;;;;;4982771;28;20119;-66
2023/01/21 07:13:57;;;;;;;75.75;23.30;;;-0.80;99.90;;;;;;4970333;28;20078;-66
2023/01/21 07:16:23;;;;;;;68.55;22.05;;;-1.00;99.90;;;;;;4970570;28;20140;-66
2023/01/21 07:18:49;;;;;;;62.72;21.63;;;-0.90;99.90;;;;;;4985043;28;20041;-66
2023/01/21 07:21:15;;;;;;;69.18;22.30;;;-0.90;99.90;;;;;;4972797;28;20069;-66
2023/01/21 07:23:41;;;;;;;59.05;21.95;;;-0.90;99.90;;;;;;4966394;28;20161;-66
2023/01/21 07:26:06;;;;;;;59.95;20.95;;;-0.90;99.90;;;;;;4988304;28;20131;-66
2023/01/21 07:28:32;;;;;;;66.72;22.63;;;-0.90;99.90;;;;;;4998063;28;20495;-66
2023/01/21 07:30:59;;;;;;;57.50;21.10;;;-0.90;99.90;;;;;;4969685;28;20033;-66
2023/01/21 07:33:25;;;;;;;64.55;21.05;;;-0.90;99.90;;;;;;4973395;28;20220;-66
2023/01/21 07:35:50;;;;;;;53.75;20.33;;;-0.90;99.90;;;;;;4986484;28;20049;-66
2023/01/21 07:38:16;;;;;;;65.10;20.48;;;-0.80;99.90;;;;;;4969276;28;20045;-66
2023/01/21 07:40:42;;;;;;;60.25;21.90;;;-0.90;99.90;;;;;;4985458;28;20120;-67
2023/01/21 07:43:08;;;;;;;64.60;22.67;;;-0.80;99.90;;;;;;4969808;28;20447;-66
2023/01/21 07:45:34;;;;;;;58.85;21.33;;;-0.80;99.90;;;;;;4972403;28;20045;-66
2023/01/21 07:48:00;;;;;;;56.83;21.52;;;-0.80;99.90;;;;;;4986424;28;20091;-66
2023/01/21 07:50:26;;;;;;;63.83;23.20;;;-0.80;99.90;;;;;;4992857;28;20038;-66
2023/01/21 07:52:58;;;;;;;76.43;24.67;;;-0.80;99.90;;;;;;4963693;28;20077;-67
2023/01/21 07:55:24;;;;;;;65.90;22.07;;;-0.70;99.90;;;;;;5002957;28;20069;-66
2023/01/21 07:57:50;;;;;;;66.72;21.75;;;-0.80;99.90;;;;;;4971968;28;20288;-67
2023/01/21 08:00:16;;;;;;;54.72;19.88;;;-0.80;99.90;;;;;;4964991;28;20613;-66
2023/01/21 08:02:42;;;;;;;53.25;19.33;;;-0.70;99.90;;;;;;4983091;28;20487;-66
2023/01/21 08:05:09;;;;;;;72.13;21.83;;;-0.80;99.90;;;;;;4993018;28;20111;-66
2023/01/21 08:07:35;;;;;;;59.58;20.52;;;-0.70;99.90;;;;;;4967444;28;20042;-66
2023/01/21 08:10:01;;;;;;;59.42;20.58;;;-0.70;99.90;;;;;;4990307;28;20042;-66
2023/01/21 08:12:27;;;;;;;60.35;21.92;;;-0.70;99.90;;;;;;4999841;28;20035;-66
2023/01/21 08:14:53;;;;;;;66.80;23.10;;;-0.70;99.90;;;;;;4973090;28;20070;-66
2023/01/21 08:17:19;;;;;;;62.50;21.35;;;-0.60;99.90;;;;;;4990515;28;20041;-66
2023/01/21 08:19:45;;;;;;;57.03;21.02;;;-0.60;99.90;;;;;;4974636;28;20347;-66
2023/01/21 08:22:10;;;;;;;69.75;23.35;;;-0.70;99.90;;;;;;4972785;28;20676;-66
2023/01/21 08:24:36;;;;;;;67.18;24.20;;;-0.60;99.90;;;;;;4971924;28;20045;-66
2023/01/21 08:27:02;;;;;;;65.88;22.85;;;-0.60;99.90;;;;;;4989327;28;20466;-65
2023/01/21 08:29:31;;;;;;;65.68;23.10;;;-0.60;99.90;;;;;;4954617;28;20046;-65
2023/01/21 08:31:57;;;;;;;75.10;25.85;;;-0.60;99.90;;;;;;4975339;28;20048;-65
2023/01/21 08:34:23;;;;;;;76.90;26.35;;;-0.60;99.90;;;;;;4988720;28;20514;-65
2023/01/21 08:36:48;;;;;;;65.82;23.38;;;-0.60;99.90;;;;;;4968427;28;20033;-65
2023/01/21 08:39:15;;;;;;;58.92;23.27;;;-0.60;99.90;;;;;;4990240;28;20125;-65
2023/01/21 08:41:41;;;;;;;67.93;23.75;;;-0.50;99.90;;;;;;4975088;28;20050;-66
2023/01/21 08:44:07;;;;;;;58.38;19.75;;;-0.60;99.90;;;;;;4986780;28;20046;-65
2023/01/21 08:46:33;;;;;;;57.03;20.73;;;-0.50;99.90;;;;;;5008722;28;20043;-65
2023/01/21 08:48:59;;;;;;;58.88;20.63;;;-0.50;99.90;;;;;;4986044;28;20045;-65
2023/01/21 08:51:25;;;;;;;62.42;21.67;;;-0.50;99.90;;;;;;4971733;28;20100;-66
2023/01/21 08:53:52;;;;;;;67.72;24.05;;;-0.50;99.90;;;;;;4973643;28;20046;-65
2023/01/21 08:56:18;;;;;;;58.15;20.27;;;-0.40;99.90;;;;;;4986978;28;20125;-65
2023/01/21 08:58:44;;;;;;;62.53;23.02;;;-0.40;99.90;;;;;;4987455;28;20113;-65
2023/01/21 09:01:12;;;;;;;58.10;20.60;;;-0.40;99.90;;;;;;5005034;28;20048;-66
2023/01/21 09:03:38;;;;;;;67.35;23.70;;;-0.40;99.90;;;;;;4996525;28;20061;-65
2023/01/21 09:06:04;;;;;;;60.60;19.73;;;-0.30;99.90;;;;;;4993929;28;20100;-65
2023/01/21 09:08:31;;;;;;;65.03;20.50;;;-0.40;99.90;;;;;;4979271;28;20469;-65
2023/01/21 09:11:01;;;;;;;52.05;22.17;;;-0.30;99.90;;;;;;4989390;28;20035;-65
2023/01/21 09:13:33;;;;;;;61.05;21.08;;;-0.30;99.90;;;;;;4981762;28;20046;-66
2023/01/21 09:15:59;;;;;;;56.60;21.83;;;-0.20;99.90;;;;;;4984664;28;20441;-65
2023/01/21 09:18:25;;;;;;;60.05;21.27;;;-0.20;99.90;;;;;;4995490;28;20060;-66
2023/01/21 09:20:51;;;;;;;56.97;20.00;;;-0.20;99.90;;;;;;5006908;28;20403;-66
2023/01/21 09:23:23;;;;;;;56.80;20.73;;;-0.20;99.90;;;;;;4978333;28;20073;-66
2023/01/21 09:25:54;;;;;;;49.92;19.02;;;-0.10;99.90;;;;;;4991045;28;20255;-66
2023/01/21 09:28:21;;;;;;;55.03;21.77;;;-0.10;99.90;;;;;;5012964;28;20046;-66
2023/01/21 09:30:47;;;;;;;51.83;20.63;;;-0.20;99.90;;;;;;4983403;28;20042;-65
2023/01/21 09:33:14;;;;;;;60.85;20.55;;;-0.10;99.90;;;;;;4979822;28;20088;-66
2023/01/21 09:35:40;;;;;;;57.30;20.33;;;0.10;99.90;;;;;;4977241;28;20038;-66
2023/01/21 09:38:06;;;;;;;54.50;20.80;;;-0.10;99.90;;;;;;4994758;28;20131;-66
2023/01/21 09:40:33;;;;;;;52.80;18.08;;;-0.10;99.90;;;;;;4976622;28;20049;-66
2023/01/21 09:43:08;;;;;;;55.85;19.13;;;-0.10;99.90;;;;;;4973054;28;20042;-66
2023/01/21 09:45:34;;;;;;;57.85;20.48;;;0.00;99.90;;;;;;4992556;28;20499;-66
2023/01/21 09:48:02;;;;;;;55.30;20.08;;;0.00;99.90;;;;;;4992704;28;20041;-66
2023/01/21 09:50:30;;;;;;;56.35;20.20;;;0.40;99.90;;;;;;4991284;28;20038;-66
2023/01/21 09:53:05;;;;;;;51.95;18.75;;;0.00;99.90;;;;;;4993180;28;20462;-66
2023/01/21 09:55:51;;;;;;;47.83;17.90;;;0.10;99.90;;;;;;4992411;28;20079;-66
2023/01/21 09:58:39;;;;;;;46.22;17.48;;;0.10;99.90;;;;;;4985351;28;20399;-66
2023/01/21 10:01:19;;;;;;;45.60;17.52;;;0.10;99.90;;;;;;4988804;28;20093;-66
2023/01/21 10:03:53;;;;;;;51.20;18.63;;;0.10;99.90;;;;;;4988907;28;20473;-66
2023/01/21 10:06:53;;;;;;;47.80;20.30;;;0.20;99.90;;;;;;4988864;28;20036;-66
2023/01/21 10:09:44;;;;;;;51.63;19.65;;;0.20;99.90;;;;;;5005579;28;20810;-66
2023/01/21 10:12:41;;;;;;;44.67;18.55;;;0.20;99.90;;;;;;4988415;28;20045;-66
2023/01/21 10:15:38;;;;;;;52.65;18.65;;;0.20;99.90;;;;;;4986617;28;20418;-66
2023/01/21 10:18:12;;;;;;;49.55;19.20;;;0.30;99.90;;;;;;4991998;28;20065;-67
2023/01/21 10:20:53;;;;;;;50.05;19.92;;;0.30;99.90;;;;;;5006595;28;20109;-66
2023/01/21 10:23:31;;;;;;;50.97;20.08;;;0.40;99.90;;;;;;4992940;28;20030;-66
2023/01/21 10:26:00;;;;;;;45.80;18.80;;;0.50;99.90;;;;;;5008941;28;20034;-66
2023/01/21 10:28:29;;;;;;;46.80;18.75;;;0.50;99.90;;;;;;5008631;28;20042;-66
2023/01/21 10:31:26;;;;;;;46.03;17.38;;;0.60;99.90;;;;;;4989616;28;20042;-66
2023/01/21 10:33:52;;;;;;;52.13;19.95;;;0.70;99.90;;;;;;4987298;28;20038;-67
2023/01/21 10:36:39;;;;;;;42.70;19.38;;;0.70;99.90;;;;;;4988503;28;20042;-67
2023/01/21 10:39:24;;;;;;;51.20;19.10;;;1.10;99.90;;;;;;4990685;28;20042;-67
2023/01/21 10:41:59;;;;;;;45.88;19.58;;;1.50;99.90;;;;;;4984863;28;20378;-67
2023/01/21 10:44:44;;;;;;;;;;;2.10;99.90;;;;;;4986739;28;20076;-67
2023/01/21 10:47:40;;;;;;;37.55;17.02;;;2.20;99.90;;;;;;4984920;28;20400;-67
2023/01/21 10:50:43;;;;;;;41.70;19.17;;;2.50;99.90;;;;;;5004454;28;20082;-67
2023/01/21 10:53:26;;;;;;;39.70;18.05;;;2.50;99.90;;;;;;4991237;28;20064;-67
2023/01/21 10:56:12;;;;;;;40.28;17.33;;;2.50;99.90;;;;;;4995794;28;20399;-67
2023/01/21 10:58:51;;;;;;;36.60;18.15;;;2.60;99.90;;;;;;4991340;28;20522;-66
2023/01/21 11:01:38;;;;;;;38.83;18.05;;;2.60;99.90;;;;;;4992092;28;20042;-66
2023/01/21 11:04:26;;;;;;;42.22;18.60;;;2.50;99.90;;;;;;4991415;28;20507;-67
2023/01/21 11:07:01;;;;;;;42.35;18.80;;;2.40;99.90;;;;;;4992422;28;20041;-67
2023/01/21 11:09:42;;;;;;;44.20;19.40;;;2.40;99.90;;;;;;4992287;28;20042;-67
2023/01/21 11:12:16;;;;;;;43.47;18.67;;;2.40;99.90;;;;;;4991926;28;20054;-67
2023/01/21 11:15:01;;;;;;;42.80;17.73;;;2.60;99.90;;;;;;5009038;28;20042;-67
2023/01/21 11:17:34;;;;;;;37.33;17.55;;;2.60;99.90;;;;;;4991895;28;20053;-67
2023/01/21 11:20:03;;;;;;;35.00;17.40;;;2.60;99.90;;;;;;4975520;28;20044;-67
2023/01/21 11:22:31;;;;;;;35.50;17.85;;;2.50;99.90;;;;;;4980834;28;20053;-67
2023/01/21 11:25:01;;;;;;;41.13;18.83;;;2.50;99.90;;;;;;5009276;28;20468;-67
2023/01/21 11:27:35;;;;;;;36.03;18.13;;;2.50;99.90;;;;;;4974057;28;20479;-67
2023/01/21 11:30:01;;;;;;;38.47;18.33;;;2.50;99.90;;;;;;4991879;28;20113;-67
2023/01/21 11:32:36;;;;;;;36.17;17.95;;;2.50;99.90;;;;;;4990242;28;20127;-67
2023/01/21 11:35:07;;;;;;;34.72;17.52;;;2.50;99.90;;;;;;4991258;28;20089;-67
2023/01/21 11:37:36;;;;;;;38.05;17.77;;;2.50;99.90;;;;;;4991274;28;20038;-67
2023/01/21 11:40:27;;;;;;;37.63;18.55;;;2.60;99.90;;;;;;4973649;28;20110;-67
2023/01/21 11:42:55;;;;;;;39.20;18.58;;;2.60;99.90;;;;;;4991848;28;20564;-66
2023/01/21 11:45:37;;;;;;;36.33;17.77;;;2.60;99.90;;;;;;4990987;28;20506;-66
2023/01/21 11:48:37;;;;;;;37.38;18.10;;;2.50;99.90;;;;;;4989024;28;20081;-66
2023/01/21 11:51:06;;;;;;;41.40;19.85;;;2.60;99.90;;;;;;4991787;28;20033;-67
2023/01/21 11:53:32;;;;;;;39.92;19.65;;;2.70;99.90;;;;;;5009337;28;20078;-67
2023/01/21 11:56:01;;;;;;;37.40;16.77;;;2.70;99.90;;;;;;4991903;28;20037;-67
2023/01/21 11:58:37;;;;;;;36.80;18.23;;;2.60;99.90;;;;;;4976027;28;20394;-66
2023/01/21 12:01:07;;;;;;;36.08;18.50;;;2.50;99.90;;;;;;4992085;28;20077;-66
2023/01/21 12:03:54;;;;;;;34.42;17.50;;;2.40;99.90;;;;;;4975487;28;20485;-66
2023/01/21 12:06:29;;;;;;;36.92;18.30;;;2.40;99.90;;;;;;4990719;28;20030;-66
2023/01/21 12:09:14;;;;;;;40.80;18.75;;;2.50;99.90;;;;;;4992081;28;20438;-66
2023/01/21 12:11:59;;;;;;;37.17;18.98;;;2.50;99.90;;;;;;4989470;28;20038;-67
2023/01/21 12:14:42;;;;;;;35.28;18.02;;;2.60;99.90;;;;;;4973199;28;20045;-66
2023/01/21 12:17:26;;;;;;;38.83;18.80;;;2.70;99.90;;;;;;4991553;28;20084;-66
2023/01/21 12:20:51;;;;;;;35.72;17.75;;;2.80;99.90;;;;;;4991790;28;20049;-67
2023/01/21 12:23:35;;;;;;;39.45;18.95;;;2.80;99.90;;;;;;4974772;28;20050;-67
2023/01/21 12:26:21;;;;;;;35.42;18.35;;;2.80;99.90;;;;;;4991932;28;20034;-67
2023/01/21 12:29:03;;;;;;;34.70;17.75;;;2.80;99.90;;;;;;4974204;28;20108;-67
2023/01/21 12:31:32;;;;;;;38.47;18.33;;;2.80;99.90;;;;;;4973291;28;20049;-67
2023/01/21 12:34:10;;;;;;;33.53;17.98;;;2.80;99.90;;;;;;4990994;28;20533;-67
2023/01/21 12:36:41;;;;;;;33.08;17.45;;;2.80;99.90;;;;;;4991969;28;20029;-67
2023/01/21 12:39:19;;;;;;;36.08;19.65;;;2.80;99.90;;;;;;4991632;28;20120;-67
2023/01/21 12:41:56;;;;;;;39.60;19.23;;;2.70;99.90;;;;;;4975399;28;20045;-67
2023/01/21 12:44:49;;;;;;;40.20;18.25;;;2.70;99.90;;;;;;4989842;28;20477;-67
2023/01/21 12:47:31;;;;;;;33.97;17.67;;;2.70;99.90;;;;;;4987466;28;20038;-67
2023/01/21 12:50:02;;;;;;;41.17;18.40;;;2.70;99.90;;;;;;5001488;28;20596;-67
2023/01/21 12:52:37;;;;;;;32.45;17.45;;;2.60;99.90;;;;;;4991947;28;20117;-67